Belvedere, California
Current Conditions -  °F | °C
As of 1:53 PM on Monday 22 Dec 2014 (Local Time) from KOAK Reporting Station
Few Clouds Few Clouds  
Wind Chill: 58°   Ceiling: Unl
Heat Index: 58°   Visibility: 10mi
Dew Point: 56°   Wind: 3mph
Humidity: 93%   Direction: 240°WSW
Pressure: 30.2"   Gusts: NA
Location:  37.8931°N, 122.472°W
Report Text: KOAK 222153Z 24003KT 10SM FEW001 14/13 A3020 RMK AO2 SLP227 T01440133
Loading
Personal Weather Stations






























Interactive Weather Map New forecast layout! Learn more

10-Day Weather Forecast

Advertisements
Track Severe Weather on mobile